Time;durP1;ratioP1;P1;durP2;ratioP2;P2;SDS_P1;SDS_P2;PMS_P1;PMS_P2;Temp;Humidity;BMP_temperature;BMP_pressure;BME280_temperature;BME280_humidity;BME280_pressure;Samples;Min_cycle;Max_cycle;Signal;HPM_P1;HPM_P2
2024/03/10 18:40:39;;;;;;;17.45;13.68;;;20.00;99.90;;;;;;5055225;27;20421;-39
2024/03/10 18:43:05;;;;;;;17.83;13.82;;;20.20;99.90;;;;;;5025751;28;20052;-39
2024/03/10 18:45:30;;;;;;;14.80;13.15;;;20.10;99.90;;;;;;5026351;28;20033;-40
2024/03/10 18:47:57;;;;;;;16.65;12.88;;;20.10;99.90;;;;;;5039151;28;20022;-42
2024/03/10 18:50:24;;;;;;;16.48;13.25;;;20.10;99.90;;;;;;5036515;28;20445;-39
2024/03/10 18:52:50;;;;;;;15.18;13.07;;;20.00;99.90;;;;;;5033629;23;20042;-49
2024/03/10 18:55:15;;;;;;;19.45;13.02;;;20.00;99.90;;;;;;4996801;28;20026;-49
2024/03/10 18:57:41;;;;;;;15.15;12.30;;;20.00;99.90;;;;;;5000215;28;20109;-49
2024/03/10 19:00:08;;;;;;;17.77;12.38;;;20.00;99.90;;;;;;4998138;28;20153;-49
2024/03/10 19:02:33;;;;;;;15.85;12.98;;;20.00;99.90;;;;;;4989014;28;20389;-48
2024/03/10 19:04:59;;;;;;;12.60;11.30;;;20.00;99.90;;;;;;4989273;28;20125;-49
2024/03/10 19:07:25;;;;;;;12.70;11.02;;;19.90;99.90;;;;;;5004286;28;20026;-48
2024/03/10 19:09:51;;;;;;;14.38;11.13;;;20.00;99.90;;;;;;4989522;28;20385;-49
2024/03/10 19:12:18;;;;;;;14.00;11.07;;;19.90;99.90;;;;;;4989440;28;20034;-48
2024/03/10 19:14:44;;;;;;;14.40;11.25;;;19.90;99.90;;;;;;4988781;28;20041;-48
2024/03/10 19:17:09;;;;;;;14.35;11.50;;;19.90;99.90;;;;;;4987801;28;20031;-48
2024/03/10 19:19:35;;;;;;;16.35;11.65;;;19.90;99.90;;;;;;4989214;28;20031;-49
2024/03/10 19:22:01;;;;;;;14.30;11.50;;;19.90;99.90;;;;;;4987356;28;20027;-49
2024/03/10 19:24:26;;;;;;;12.73;11.18;;;19.90;99.90;;;;;;4989321;28;20105;-49
2024/03/10 19:26:52;;;;;;;12.25;10.73;;;19.90;99.90;;;;;;4988334;28;20031;-49
2024/03/10 19:29:18;;;;;;;16.90;11.65;;;19.90;99.90;;;;;;4987440;28;20101;-49
2024/03/10 19:31:44;;;;;;;16.15;11.38;;;19.90;99.90;;;;;;4986750;28;20054;-49
2024/03/10 19:34:10;;;;;;;12.00;10.07;;;19.90;99.90;;;;;;4987194;28;20030;-48
2024/03/10 19:36:36;;;;;;;13.05;10.48;;;19.90;99.90;;;;;;4989673;28;20082;-49
2024/03/10 19:39:02;;;;;;;13.73;11.30;;;19.90;99.90;;;;;;4988878;28;20027;-49
2024/03/10 19:41:27;;;;;;;14.30;10.95;;;19.80;99.90;;;;;;4989078;28;20105;-49
2024/03/10 19:43:53;;;;;;;11.63;9.40;;;19.90;99.90;;;;;;5004704;28;20043;-47
2024/03/10 19:46:19;;;;;;;12.70;11.18;;;19.80;99.90;;;;;;4989527;28;20201;-48
2024/03/10 19:48:44;;;;;;;12.18;9.40;;;19.80;99.90;;;;;;4987556;28;20060;-48
2024/03/10 19:51:12;;;;;;;14.05;9.95;;;19.80;99.90;;;;;;4979697;28;20510;-48
2024/03/10 19:53:37;;;;;;;20.70;10.93;;;19.80;99.90;;;;;;4990531;28;20045;-48
2024/03/10 19:56:03;;;;;;;13.73;10.95;;;19.90;99.90;;;;;;4975260;28;20026;-49
2024/03/10 19:58:30;;;;;;;10.75;9.32;;;19.80;99.90;;;;;;4975489;28;20097;-49
2024/03/10 20:00:56;;;;;;;13.20;10.32;;;19.80;99.90;;;;;;4975149;28;20038;-48
2024/03/10 20:03:22;;;;;;;11.38;9.43;;;19.80;99.90;;;;;;4975111;28;20031;-49
2024/03/10 20:05:47;;;;;;;10.57;9.48;;;19.80;99.90;;;;;;4974974;28;20030;-49
2024/03/10 20:08:14;;;;;;;11.98;10.63;;;19.80;99.90;;;;;;4974490;28;20027;-49
2024/03/10 20:10:40;;;;;;;10.85;9.55;;;19.80;99.90;;;;;;4989517;28;20034;-49
2024/03/10 20:13:06;;;;;;;11.35;9.45;;;19.80;99.90;;;;;;4975461;28;20101;-48
2024/03/10 20:15:31;;;;;;;10.90;8.85;;;19.80;99.90;;;;;;4990571;28;20490;-49
2024/03/10 20:17:57;;;;;;;11.63;9.38;;;19.70;99.90;;;;;;4990353;28;20076;-48
2024/03/10 20:20:25;;;;;;;11.73;9.32;;;19.80;99.90;;;;;;4974731;28;20027;-49
2024/03/10 20:22:55;;;;;;;10.20;8.82;;;19.80;99.90;;;;;;4974198;28;20197;-49
2024/03/10 20:25:22;;;;;;;10.85;9.02;;;19.70;99.90;;;;;;4973688;28;20023;-48
2024/03/10 20:27:52;;;;;;;11.40;9.07;;;19.70;99.90;;;;;;4989999;28;20394;-49
2024/03/10 20:30:18;;;;;;;9.88;8.50;;;19.70;99.90;;;;;;4974528;28;20050;-49
2024/03/10 20:32:43;;;;;;;10.95;9.27;;;19.70;99.90;;;;;;4974101;28;20042;-49
2024/03/10 20:35:10;;;;;;;9.82;8.80;;;19.80;99.90;;;;;;4974795;28;20030;-48
2024/03/10 20:37:36;;;;;;;9.70;8.70;;;19.70;99.90;;;;;;4989204;28;20502;-48
2024/03/10 20:40:03;;;;;;;10.00;8.93;;;19.70;99.90;;;;;;4974258;28;20137;-48
2024/03/10 20:42:28;;;;;;;9.90;8.90;;;19.70;99.90;;;;;;4968244;28;20018;-48
2024/03/10 20:44:55;;;;;;;9.25;8.32;;;19.70;99.90;;;;;;4973912;28;20022;-48
2024/03/10 20:47:21;;;;;;;18.98;8.40;;;19.70;99.90;;;;;;4974208;28;20026;-49
2024/03/10 20:49:46;;;;;;;8.32;7.55;;;19.70;99.90;;;;;;4971803;28;20039;-48
2024/03/10 20:52:13;;;;;;;9.77;8.73;;;19.70;99.90;;;;;;4973509;28;20022;-48
2024/03/10 20:54:39;;;;;;;9.43;8.32;;;19.70;99.90;;;;;;4974448;28;20026;-49
2024/03/10 20:57:06;;;;;;;9.77;8.73;;;19.70;99.90;;;;;;4971699;28;20023;-48
2024/03/10 20:59:32;;;;;;;9.93;8.68;;;19.70;99.90;;;;;;4974031;28;20557;-47
2024/03/10 21:01:58;;;;;;;9.95;8.60;;;19.70;99.90;;;;;;4967136;28;20034;-47
2024/03/10 21:04:25;;;;;;;11.75;9.15;;;19.70;99.90;;;;;;4974276;28;20118;-48
2024/03/10 21:06:50;;;;;;;8.98;8.07;;;19.70;99.90;;;;;;4972037;28;20027;-48
2024/03/10 21:09:17;;;;;;;10.52;9.45;;;19.70;99.90;;;;;;4974173;28;20069;-48
2024/03/10 21:11:44;;;;;;;10.70;8.88;;;19.70;99.90;;;;;;4973394;28;20035;-48
2024/03/10 21:14:10;;;;;;;11.48;8.60;;;19.70;99.90;;;;;;4972328;28;20026;-48
2024/03/10 21:16:36;;;;;;;9.07;8.07;;;19.60;99.90;;;;;;4973495;28;20404;-47
2024/03/10 21:19:02;;;;;;;8.45;7.65;;;19.70;99.90;;;;;;4974260;28;20045;-48
2024/03/10 21:21:29;;;;;;;9.07;8.18;;;19.70;99.90;;;;;;4980039;28;20023;-48
2024/03/10 21:23:55;;;;;;;8.63;7.78;;;19.60;99.90;;;;;;5000593;28;20023;-48
2024/03/10 21:26:21;;;;;;;8.82;7.53;;;19.60;99.90;;;;;;4987224;28;20029;-49
2024/03/10 21:28:46;;;;;;;8.43;7.53;;;19.60;99.90;;;;;;4984238;28;20033;-48
2024/03/10 21:31:12;;;;;;;9.32;8.32;;;19.70;99.90;;;;;;4982111;28;20038;-48
2024/03/10 21:33:39;;;;;;;12.35;8.75;;;19.60;99.90;;;;;;4965433;28;20389;-48
2024/03/10 21:36:05;;;;;;;8.63;7.72;;;19.70;99.90;;;;;;4972193;28;20113;-48
2024/03/10 21:38:30;;;;;;;8.57;7.68;;;19.60;99.90;;;;;;4987319;28;20503;-47
2024/03/10 21:40:56;;;;;;;9.80;7.45;;;19.60;99.90;;;;;;4970838;28;20027;-48
2024/03/10 21:43:23;;;;;;;9.52;7.65;;;19.60;99.90;;;;;;4972846;28;20086;-49
2024/03/10 21:45:49;;;;;;;8.15;7.32;;;19.60;99.90;;;;;;4987822;28;20030;-48
2024/03/10 21:48:14;;;;;;;8.90;8.00;;;19.60;99.90;;;;;;4972827;28;20093;-50
2024/03/10 21:50:41;;;;;;;9.27;7.82;;;19.60;99.90;;;;;;4972745;28;20552;-49
2024/03/10 21:53:07;;;;;;;9.93;7.95;;;19.60;99.90;;;;;;4971760;28;20477;-48
2024/03/10 21:55:33;;;;;;;9.43;8.43;;;19.60;99.90;;;;;;4971866;28;20081;-49
2024/03/10 21:57:59;;;;;;;8.25;7.40;;;19.60;99.90;;;;;;4972314;28;20027;-48
2024/03/10 22:00:26;;;;;;;8.50;7.55;;;19.50;99.90;;;;;;4972359;28;20030;-49
2024/03/10 22:02:53;;;;;;;9.38;7.50;;;19.50;99.90;;;;;;4987812;28;20165;-49
2024/03/10 22:05:18;;;;;;;7.65;6.82;;;19.50;99.90;;;;;;4972069;28;20574;-48
2024/03/10 22:07:45;;;;;;;8.07;7.07;;;19.50;99.90;;;;;;4973104;28;20050;-47
2024/03/10 22:10:13;;;;;;;8.88;8.00;;;19.50;99.90;;;;;;4972806;28;20085;-47
2024/03/10 22:12:41;;;;;;;9.40;8.50;;;19.40;99.90;;;;;;4987516;28;20027;-47
2024/03/10 22:15:17;;;;;;;11.23;7.68;;;19.40;99.90;;;;;;4987503;28;20026;-49
2024/03/10 22:17:48;;;;;;;8.25;7.45;;;19.40;99.90;;;;;;4988022;28;20030;-48
2024/03/10 22:20:15;;;;;;;7.95;7.15;;;19.40;99.90;;;;;;4987562;28;20030;-48
2024/03/10 22:22:42;;;;;;;7.95;6.90;;;19.40;99.90;;;;;;4972662;28;20018;-48
2024/03/10 22:25:12;;;;;;;8.63;7.60;;;19.40;99.90;;;;;;4987427;28;20029;-48
2024/03/10 22:27:40;;;;;;;8.55;7.75;;;19.40;99.90;;;;;;4973038;28;20065;-48
2024/03/10 22:30:07;;;;;;;10.75;7.13;;;19.40;99.90;;;;;;4972711;28;20078;-48
2024/03/10 22:32:37;;;;;;;7.80;7.05;;;19.40;99.90;;;;;;4972686;28;20656;-48
2024/03/10 22:35:03;;;;;;;8.52;7.63;;;19.40;99.90;;;;;;4972643;28;20556;-49
2024/03/10 22:37:29;;;;;;;7.85;7.05;;;19.40;99.90;;;;;;4972358;28;20080;-49
2024/03/10 22:39:55;;;;;;;7.88;6.68;;;19.40;99.90;;;;;;4987367;28;20089;-49
2024/03/10 22:42:22;;;;;;;7.55;6.80;;;19.40;99.90;;;;;;4987267;28;20023;-49
2024/03/10 22:44:49;;;;;;;8.30;7.20;;;19.50;99.90;;;;;;4971381;28;20115;-49
2024/03/10 22:47:15;;;;;;;8.18;6.65;;;19.50;99.90;;;;;;4972600;28;20497;-49
2024/03/10 22:49:40;;;;;;;8.07;7.03;;;19.50;99.90;;;;;;4972791;28;20077;-49
2024/03/10 22:52:07;;;;;;;7.22;6.63;;;19.60;99.90;;;;;;4986887;28;20027;-49
2024/03/10 22:54:33;;;;;;;7.07;6.35;;;19.60;99.90;;;;;;4972288;28;20477;-49
2024/03/10 22:56:59;;;;;;;7.45;6.75;;;19.60;99.90;;;;;;4972886;28;20090;-49
2024/03/10 22:59:27;;;;;;;7.25;6.55;;;19.70;99.90;;;;;;4971092;28;20122;-49
2024/03/10 23:01:53;;;;;;;7.32;6.63;;;19.70;99.90;;;;;;4987025;28;20019;-49
2024/03/10 23:04:20;;;;;;;9.15;6.68;;;19.70;99.90;;;;;;4987297;28;20045;-49
2024/03/10 23:06:46;;;;;;;7.80;7.00;;;19.70;99.90;;;;;;4972396;28;20022;-49
2024/03/10 23:09:14;;;;;;;7.60;6.82;;;19.70;99.90;;;;;;4972588;28;20045;-49
2024/03/10 23:11:41;;;;;;;10.52;7.05;;;19.70;99.90;;;;;;4986957;28;20027;-49
2024/03/10 23:14:10;;;;;;;7.18;6.47;;;19.80;99.90;;;;;;4972210;28;20059;-49
2024/03/10 23:16:35;;;;;;;7.50;6.70;;;19.70;99.90;;;;;;4972381;28;20524;-48
2024/03/10 23:19:02;;;;;;;7.63;6.82;;;19.80;99.90;;;;;;4972312;28;20054;-49
2024/03/10 23:21:27;;;;;;;7.07;6.00;;;19.80;99.90;;;;;;4971921;28;20121;-49
2024/03/10 23:23:53;;;;;;;8.05;6.93;;;19.80;99.90;;;;;;4972473;28;20035;-49
2024/03/10 23:26:18;;;;;;;6.72;6.03;;;19.80;99.90;;;;;;4988986;28;20022;-49
2024/03/10 23:28:44;;;;;;;7.47;6.68;;;19.70;99.90;;;;;;4976350;28;20110;-49
2024/03/10 23:31:10;;;;;;;7.57;6.63;;;19.70;99.90;;;;;;4976211;28;20478;-49
2024/03/10 23:33:35;;;;;;;6.95;6.35;;;19.70;99.90;;;;;;4975378;28;20027;-49
2024/03/10 23:36:03;;;;;;;6.43;5.60;;;19.70;99.90;;;;;;4975953;28;20101;-48
2024/03/10 23:38:29;;;;;;;6.95;6.25;;;19.70;99.90;;;;;;4974850;28;20478;-49
2024/03/10 23:40:55;;;;;;;6.85;6.22;;;19.60;99.90;;;;;;4975207;28;20034;-49
2024/03/10 23:43:21;;;;;;;6.63;5.82;;;19.60;99.90;;;;;;4975484;28;20022;-49
2024/03/10 23:45:47;;;;;;;6.95;5.82;;;19.60;99.90;;;;;;4974368;28;20023;-49
2024/03/10 23:48:13;;;;;;;6.88;6.07;;;19.60;99.90;;;;;;4975781;28;20066;-49
2024/03/10 23:50:39;;;;;;;6.72;6.07;;;19.60;99.90;;;;;;4990500;28;20058;-48
2024/03/10 23:53:05;;;;;;;6.18;5.57;;;19.60;99.90;;;;;;4975549;28;20037;-49
2024/03/10 23:55:37;;;;;;;7.05;6.35;;;19.60;99.90;;;;;;4975788;28;20018;-49
2024/03/10 23:58:02;;;;;;;7.32;6.22;;;19.60;99.90;;;;;;4990571;28;20437;-49
